Time;durP1;ratioP1;P1;durP2;ratioP2;P2;SDS_P1;SDS_P2;PMS_P1;PMS_P2;Temp;Humidity;BMP_temperature;BMP_pressure;BME280_temperature;BME280_humidity;BME280_pressure;Samples;Min_cycle;Max_cycle;Signal;HPM_P1;HPM_P2
2021/01/18 00:00:33;;;;;;;41.53;14.67;;;-11.10;99.90;;;;;;5271821;28;20220;-75
2021/01/18 00:03:05;;;;;;;45.83;16.00;;;-11.10;99.90;;;;;;5271718;28;20196;-73
2021/01/18 00:05:39;;;;;;;40.40;15.30;;;-11.10;99.90;;;;;;5271217;28;20240;-71
2021/01/18 00:08:10;;;;;;;36.93;13.73;;;-11.20;99.90;;;;;;5271674;28;20192;-73
2021/01/18 00:10:42;;;;;;;38.10;16.57;;;-11.20;99.90;;;;;;5271245;28;20648;-77
2021/01/18 00:13:13;;;;;;;44.20;15.00;;;-11.30;99.90;;;;;;5271256;28;20219;-77
2021/01/18 00:15:45;;;;;;;43.00;15.93;;;-11.30;99.90;;;;;;5271243;28;20201;-76
2021/01/18 00:18:16;;;;;;;37.93;14.00;;;-11.40;99.90;;;;;;5271982;28;20193;-79
2021/01/18 00:20:48;;;;;;;42.37;15.10;;;-11.40;99.90;;;;;;5272317;28;20219;-79
2021/01/18 00:23:20;;;;;;;47.23;16.07;;;-11.30;99.90;;;;;;5257978;28;20548;-77
2021/01/18 00:25:52;;;;;;;40.63;15.03;;;-11.30;99.90;;;;;;5275939;28;20212;-77
2021/01/18 00:28:25;;;;;;;54.53;15.33;;;-11.30;99.90;;;;;;5272929;28;20190;-79
2021/01/18 00:30:56;;;;;;;41.63;16.50;;;-11.30;99.90;;;;;;5273160;28;20204;-78
2021/01/18 00:33:28;;;;;;;42.20;14.57;;;-11.30;99.90;;;;;;5254971;28;20613;-76
2021/01/18 00:39:56;;;;;;;39.07;14.33;;;-11.40;99.90;;;;;;5272034;28;20737;-78
2021/01/18 00:42:27;;;;;;;38.47;15.17;;;-11.40;99.90;;;;;;5270777;28;20202;-79
2021/01/18 00:44:59;;;;;;;41.67;14.67;;;-11.50;99.90;;;;;;5253233;28;20199;-78
2021/01/18 00:47:30;;;;;;;44.77;16.33;;;-11.50;99.90;;;;;;5270722;28;20351;-77
2021/01/18 00:50:02;;;;;;;39.90;15.93;;;-11.50;99.90;;;;;;5270464;28;20206;-77
2021/01/18 00:57:09;;;;;;;45.20;16.33;;;-11.50;99.90;;;;;;5249658;28;20207;-79
2021/01/18 00:59:41;;;;;;;35.17;15.23;;;-11.60;99.90;;;;;;5250087;28;20576;-78
2021/01/18 01:02:12;;;;;;;41.03;16.50;;;-11.60;99.90;;;;;;5249784;28;20207;-77
2021/01/18 01:04:43;;;;;;;42.67;17.70;;;-11.60;99.90;;;;;;5252790;28;20196;-79
2021/01/18 01:11:01;;;;;;;41.13;16.00;;;-11.50;99.90;;;;;;5253715;28;20176;-79
2021/01/18 01:13:32;;;;;;;39.83;16.20;;;-11.50;99.90;;;;;;5251881;28;20673;-77
2021/01/18 01:16:04;;;;;;;44.17;17.53;;;-11.40;99.90;;;;;;5250158;28;20544;-77
2021/01/18 01:18:36;;;;;;;36.53;15.13;;;-11.30;99.90;;;;;;5249917;28;20195;-76
2021/01/18 01:21:08;;;;;;;40.33;16.13;;;-11.30;99.90;;;;;;5250128;28;20664;-80
2021/01/18 01:27:36;;;;;;;44.57;15.17;;;-11.20;99.90;;;;;;5249318;28;20198;-75
2021/01/18 01:30:13;;;;;;;38.80;14.40;;;-11.20;99.90;;;;;;5249664;28;20192;-78
2021/01/18 01:32:47;;;;;;;39.13;16.10;;;-11.10;99.90;;;;;;5250046;28;20215;-76
2021/01/18 01:35:21;;;;;;;44.77;15.73;;;-11.10;99.90;;;;;;5252229;28;20192;-75
2021/01/18 01:37:54;;;;;;;40.53;16.00;;;-11.10;99.90;;;;;;5250282;28;20189;-75
2021/01/18 01:40:26;;;;;;;47.63;15.87;;;-11.10;99.90;;;;;;5248865;28;20224;-76
2021/01/18 01:43:00;;;;;;;41.70;15.83;;;-11.10;99.90;;;;;;5249316;28;20188;-77
2021/01/18 01:45:32;;;;;;;42.67;16.60;;;-11.10;99.90;;;;;;5248831;28;20197;-77
2021/01/18 01:48:04;;;;;;;45.30;15.03;;;-11.00;99.90;;;;;;5248875;28;20188;-77
2021/01/18 01:50:38;;;;;;;41.10;16.50;;;-11.00;99.90;;;;;;5251310;28;20208;-79
2021/01/18 01:53:20;;;;;;;39.27;14.47;;;-11.00;99.90;;;;;;5252803;28;20200;-78
2021/01/18 01:55:52;;;;;;;37.47;13.70;;;-11.00;99.90;;;;;;5264334;28;20711;-76
2021/01/18 01:58:25;;;;;;;37.23;14.80;;;-11.00;99.90;;;;;;5275366;28;20283;-75
2021/01/18 02:00:58;;;;;;;34.77;14.37;;;-10.90;99.90;;;;;;5277351;28;20302;-77
2021/01/18 02:03:42;;;;;;;38.13;13.97;;;-10.80;99.90;;;;;;5273579;28;20189;-76
2021/01/18 02:06:14;;;;;;;36.63;13.30;;;-10.90;99.90;;;;;;5274179;28;20192;-79
2021/01/18 02:08:46;;;;;;;38.87;13.83;;;-10.80;99.90;;;;;;5274631;28;20199;-77
2021/01/18 02:11:18;;;;;;;30.30;13.00;;;-10.80;99.90;;;;;;5256235;28;20601;-78
2021/01/18 02:14:23;;;;;;;31.63;12.63;;;-10.80;99.90;;;;;;5273934;28;20597;-77
2021/01/18 02:17:05;;;;;;;35.47;13.77;;;-10.70;99.90;;;;;;5273993;28;20198;-78
2021/01/18 02:20:24;;;;;;;33.93;13.53;;;-10.60;99.90;;;;;;5275273;28;20192;-75
2021/01/18 02:27:12;;;;;;;39.67;13.53;;;-10.50;99.90;;;;;;5293784;28;20259;-78
2021/01/18 02:30:12;;;;;;;37.60;14.40;;;-10.40;99.90;;;;;;5282851;28;20227;-79
2021/01/18 02:33:11;;;;;;;35.17;14.10;;;-10.50;99.90;;;;;;5275575;28;20614;-78
2021/01/18 02:36:14;;;;;;;39.37;13.40;;;-10.50;99.90;;;;;;5280258;28;20254;-79
2021/01/18 02:39:23;;;;;;;39.30;15.07;;;-10.50;99.90;;;;;;5279578;28;20609;-79
2021/01/18 02:42:19;;;;;;;42.93;13.93;;;-10.50;99.90;;;;;;5275539;28;20223;-80
2021/01/18 02:44:55;;;;;;;32.87;13.40;;;-10.50;99.90;;;;;;5275363;28;20599;-80
2021/01/18 02:47:31;;;;;;;36.53;13.50;;;-10.40;99.90;;;;;;5275246;28;20223;-78
2021/01/18 02:50:04;;;;;;;38.97;14.77;;;-10.40;99.90;;;;;;5276164;28;20195;-78
2021/01/18 02:56:25;;;;;;;28.97;12.97;;;-10.30;99.90;;;;;;5287419;28;20281;-76
2021/01/18 02:58:59;;;;;;;39.03;15.43;;;-10.20;99.90;;;;;;5286952;28;20191;-77
2021/01/18 03:01:48;;;;;;;36.93;14.30;;;-10.10;99.90;;;;;;5288936;28;20216;-77
2021/01/18 03:04:44;;;;;;;27.30;13.07;;;-10.10;99.90;;;;;;5286467;28;20188;-74
2021/01/18 03:07:17;;;;;;;31.50;13.40;;;-10.10;99.90;;;;;;5288550;28;20191;-79
2021/01/18 03:09:58;;;;;;;32.90;13.57;;;-10.00;99.90;;;;;;5287246;28;20262;-77
2021/01/18 03:12:41;;;;;;;39.03;15.53;;;-10.00;99.90;;;;;;5286886;28;20215;-78
2021/01/18 03:15:15;;;;;;;35.33;14.13;;;-10.00;99.90;;;;;;5284540;28;20193;-78
2021/01/18 03:17:49;;;;;;;35.67;14.13;;;-9.90;99.90;;;;;;5280483;28;20218;-78
2021/01/18 03:20:20;;;;;;;39.50;14.10;;;-9.80;99.90;;;;;;5280304;28;20216;-77
2021/01/18 03:22:52;;;;;;;34.83;14.37;;;-9.80;99.90;;;;;;5280324;28;20684;-77
2021/01/18 03:25:26;;;;;;;34.80;15.23;;;-9.80;99.90;;;;;;5278511;28;20527;-80
2021/01/18 03:27:57;;;;;;;32.97;12.20;;;-9.70;99.90;;;;;;5280703;28;20622;-77
2021/01/18 03:30:29;;;;;;;31.00;12.93;;;-9.70;99.90;;;;;;5278869;28;20213;-77
2021/01/18 03:33:00;;;;;;;33.03;13.17;;;-9.60;99.90;;;;;;5278770;28;20191;-79
2021/01/18 03:35:32;;;;;;;35.13;13.30;;;-9.60;99.90;;;;;;5279066;28;20192;-78
2021/01/18 03:38:05;;;;;;;30.57;12.93;;;-9.50;99.90;;;;;;5280986;28;20192;-78
2021/01/18 03:40:37;;;;;;;33.17;13.30;;;-9.40;99.90;;;;;;5262211;28;20682;-74
2021/01/18 03:43:09;;;;;;;36.27;12.77;;;-9.40;99.90;;;;;;5260083;28;20275;-74
2021/01/18 03:45:42;;;;;;;29.73;12.73;;;-9.40;99.90;;;;;;5276986;28;20206;-75
2021/01/18 03:48:14;;;;;;;38.67;13.37;;;-9.30;99.90;;;;;;5278299;28;20203;-75
2021/01/18 03:50:48;;;;;;;30.07;12.17;;;-9.30;99.90;;;;;;5275028;28;20304;-76
2021/01/18 03:53:19;;;;;;;36.77;12.83;;;-9.20;99.90;;;;;;5254345;28;20642;-75
2021/01/18 03:55:51;;;;;;;25.47;10.97;;;-9.20;99.90;;;;;;5273546;28;20706;-74
2021/01/18 03:58:22;;;;;;;28.47;12.50;;;-9.20;99.90;;;;;;5272563;28;20188;-74
2021/01/18 04:00:54;;;;;;;29.57;11.83;;;-9.20;99.90;;;;;;5271534;28;20223;-75
2021/01/18 04:03:27;;;;;;;26.27;12.07;;;-9.10;99.90;;;;;;5272412;28;20292;-75
2021/01/18 04:06:00;;;;;;;25.77;11.17;;;-9.10;99.90;;;;;;5271358;28;20187;-74
2021/01/18 04:08:32;;;;;;;27.37;11.43;;;-9.00;99.90;;;;;;5271802;28;20196;-75
2021/01/18 04:11:03;;;;;;;31.80;11.60;;;-9.00;99.90;;;;;;5272310;28;20635;-74
2021/01/18 04:13:34;;;;;;;27.07;10.83;;;-9.00;99.90;;;;;;5270472;28;20196;-76
2021/01/18 04:16:06;;;;;;;29.37;12.83;;;-9.00;99.90;;;;;;5272309;28;20192;-75
2021/01/18 04:18:38;;;;;;;32.57;12.07;;;-9.00;99.90;;;;;;5273496;28;20258;-74
2021/01/18 04:21:09;;;;;;;33.13;12.40;;;-9.00;99.90;;;;;;5254611;28;20734;-78
2021/01/18 04:23:41;;;;;;;25.40;11.53;;;-9.00;99.90;;;;;;5275316;28;20200;-79
2021/01/18 04:26:13;;;;;;;22.80;10.53;;;-9.00;99.90;;;;;;5275790;28;20192;-76
2021/01/18 04:28:45;;;;;;;28.67;12.23;;;-9.00;99.90;;;;;;5275817;28;20238;-80
2021/01/18 04:31:17;;;;;;;28.10;11.83;;;-8.90;99.90;;;;;;5274951;28;20203;-78
2021/01/18 04:33:48;;;;;;;28.17;11.07;;;-8.80;99.90;;;;;;5273791;28;20268;-76
2021/01/18 04:36:20;;;;;;;20.37;10.73;;;-8.80;99.90;;;;;;5254140;28;20286;-80
2021/01/18 04:38:51;;;;;;;32.93;11.50;;;-8.70;99.90;;;;;;5271852;28;20200;-79
2021/01/18 04:41:23;;;;;;;26.30;12.03;;;-8.70;99.90;;;;;;5272412;28;20548;-79
2021/01/18 04:43:56;;;;;;;29.60;11.90;;;-8.60;99.90;;;;;;5271432;28;20196;-78
2021/01/18 04:46:30;;;;;;;33.63;13.50;;;-8.60;99.90;;;;;;5270689;28;20188;-78
2021/01/18 04:49:02;;;;;;;26.50;12.43;;;-8.60;99.90;;;;;;5271515;28;20188;-79
2021/01/18 04:51:47;;;;;;;32.73;13.00;;;-8.60;99.90;;;;;;5271736;28;20203;-80
2021/01/18 04:54:20;;;;;;;34.53;14.80;;;-8.60;99.90;;;;;;5271131;28;20188;-78
2021/01/18 04:57:03;;;;;;;41.40;13.60;;;-8.50;99.90;;;;;;5270541;28;20240;-79
2021/01/18 04:59:49;;;;;;;35.00;12.93;;;-8.50;99.90;;;;;;5253115;28;20200;-80
2021/01/18 05:02:22;;;;;;;34.67;13.37;;;-8.50;99.90;;;;;;5270466;28;20216;-79
2021/01/18 05:04:58;;;;;;;36.00;14.03;;;-8.50;99.90;;;;;;5270459;28;20692;-79
2021/01/18 05:07:36;;;;;;;40.47;16.13;;;-8.40;99.90;;;;;;5270892;28;20555;-77
2021/01/18 05:10:12;;;;;;;34.37;13.73;;;-8.50;99.90;;;;;;5270432;28;20188;-78
2021/01/18 05:12:44;;;;;;;36.47;12.40;;;-8.50;99.90;;;;;;5271115;28;20192;-79
2021/01/18 05:15:15;;;;;;;34.27;12.70;;;-8.50;99.90;;;;;;5270634;28;20211;-77
2021/01/18 05:17:49;;;;;;;27.27;12.67;;;-8.50;99.90;;;;;;5269882;28;20196;-78
2021/01/18 05:20:21;;;;;;;32.97;13.20;;;-8.50;99.90;;;;;;5270744;28;20580;-78
2021/01/18 05:22:55;;;;;;;33.83;12.93;;;-8.50;99.90;;;;;;5269837;28;20677;-77
2021/01/18 05:25:26;;;;;;;34.60;13.57;;;-8.50;99.90;;;;;;5270616;28;20202;-77
2021/01/18 05:28:04;;;;;;;33.37;13.57;;;-8.50;99.90;;;;;;5274242;28;20207;-80
2021/01/18 05:30:41;;;;;;;38.10;14.30;;;-8.50;99.90;;;;;;5281667;28;20192;-76
2021/01/18 05:33:14;;;;;;;33.00;12.60;;;-8.50;99.90;;;;;;5269420;28;20192;-78
2021/01/18 05:35:51;;;;;;;30.23;11.53;;;-8.50;99.90;;;;;;5272633;28;20278;-77
2021/01/18 05:38:22;;;;;;;34.23;12.53;;;-8.50;99.90;;;;;;5271071;28;20194;-79
2021/01/18 05:40:53;;;;;;;29.00;13.70;;;-8.50;99.90;;;;;;5270713;28;20262;-76
2021/01/18 05:43:34;;;;;;;36.87;15.50;;;-8.50;99.90;;;;;;5270189;28;20218;-78
2021/01/18 05:46:07;;;;;;;41.77;14.87;;;-8.50;99.90;;;;;;5269908;28;20196;-77
2021/01/18 05:48:39;;;;;;;36.53;14.40;;;-8.50;99.90;;;;;;5270688;28;20195;-78
2021/01/18 05:51:11;;;;;;;32.00;13.70;;;-8.50;99.90;;;;;;5272043;28;20204;-79
2021/01/18 05:57:46;;;;;;;31.87;13.77;;;-8.50;99.90;;;;;;5272873;28;20219;-78
2021/01/18 06:00:36;;;;;;;32.90;13.27;;;-8.50;99.90;;;;;;5274378;28;20215;-78
2021/01/18 06:03:12;;;;;;;37.93;14.10;;;-8.50;99.90;;;;;;5271782;28;20654;-79
2021/01/18 06:05:49;;;;;;;41.13;15.07;;;-8.40;99.90;;;;;;5281385;28;20184;-77
2021/01/18 06:08:21;;;;;;;47.70;16.30;;;-8.40;99.90;;;;;;5273694;28;20550;-77
2021/01/18 06:11:02;;;;;;;51.60;16.47;;;-8.40;99.90;;;;;;5273297;28;20220;-76
2021/01/18 06:13:34;;;;;;;39.03;15.63;;;-8.40;99.90;;;;;;5253411;28;20203;-77
2021/01/18 06:16:09;;;;;;;32.37;13.77;;;-8.40;99.90;;;;;;5270870;28;20190;-79
2021/01/18 06:18:41;;;;;;;38.57;15.13;;;-8.40;99.90;;;;;;5270613;28;20295;-73
2021/01/18 06:21:13;;;;;;;36.20;14.37;;;-8.50;99.90;;;;;;5269753;28;20224;-77
2021/01/18 06:23:45;;;;;;;40.07;15.37;;;-8.50;99.90;;;;;;5271280;28;20263;-75
2021/01/18 06:26:16;;;;;;;36.23;14.47;;;-8.50;99.90;;;;;;5269272;28;20193;-75
2021/01/18 06:28:47;;;;;;;41.70;16.63;;;-8.50;99.90;;;;;;5269452;28;20627;-75
2021/01/18 06:31:19;;;;;;;38.53;15.67;;;-8.50;99.90;;;;;;5251477;28;20203;-74
2021/01/18 06:33:51;;;;;;;40.67;15.23;;;-8.50;99.90;;;;;;5269723;28;20214;-73
2021/01/18 06:36:26;;;;;;;44.80;19.58;;;-8.60;99.90;;;;;;5270348;28;20775;-75
2021/01/18 06:42:51;;;;;;;42.23;16.43;;;-8.50;99.90;;;;;;5274030;28;20243;-87
2021/01/18 06:45:33;;;;;;;41.83;16.70;;;-8.50;99.90;;;;;;5272843;28;20195;-81
2021/01/18 06:48:09;;;;;;;50.73;19.07;;;-8.40;99.90;;;;;;5262845;28;20192;-79
2021/01/18 06:50:41;;;;;;;49.13;17.70;;;-8.40;99.90;;;;;;5273343;28;20192;-82
2021/01/18 06:53:24;;;;;;;40.47;17.97;;;-8.30;99.90;;;;;;5273250;28;20200;-78
2021/01/18 07:00:38;;;;;;;35.50;15.67;;;-8.30;99.90;;;;;;5251586;28;20619;-78
2021/01/18 07:03:37;;;;;;;40.73;16.97;;;-8.20;99.90;;;;;;5246569;28;20199;-74
2021/01/18 07:06:23;;;;;;;59.83;22.30;;;-8.20;99.90;;;;;;5233393;28;20300;-78
2021/01/18 07:08:58;;;;;;;53.80;20.60;;;-8.10;99.90;;;;;;5224844;28;20193;-78
2021/01/18 07:15:39;;;;;;;44.67;16.30;;;-8.10;99.90;;;;;;5208194;28;20182;-78
2021/01/18 07:18:12;;;;;;;44.73;16.67;;;-8.00;99.90;;;;;;5206576;28;20218;-77
2021/01/18 07:20:46;;;;;;;42.70;17.37;;;-8.00;99.90;;;;;;5205870;28;20676;-74
2021/01/18 07:23:29;;;;;;;49.43;18.00;;;-8.00;99.90;;;;;;5199704;28;20217;-74
2021/01/18 07:26:37;;;;;;;49.53;18.60;;;-7.90;99.90;;;;;;5206285;28;20320;-73
2021/01/18 07:29:08;;;;;;;42.30;16.90;;;-7.80;99.90;;;;;;5211603;28;20196;-70
2021/01/18 07:31:45;;;;;;;43.20;17.17;;;-7.80;99.90;;;;;;5248741;28;20619;-70
2021/01/18 07:34:20;;;;;;;46.60;17.40;;;-7.70;99.90;;;;;;5249700;28;20228;-70
2021/01/18 07:37:04;;;;;;;45.60;17.37;;;-7.60;99.90;;;;;;5250096;28;20227;-70
2021/01/18 07:43:37;;;;;;;41.97;16.87;;;-7.50;99.90;;;;;;5248966;28;20185;-77
2021/01/18 07:46:24;;;;;;;46.40;16.77;;;-7.40;99.90;;;;;;5248841;28;20194;-77
2021/01/18 07:49:20;;;;;;;49.58;19.15;;;-7.30;99.90;;;;;;5247696;28;20445;-76
2021/01/18 07:52:31;;;;;;;45.83;16.87;;;-7.30;99.90;;;;;;5249138;28;20201;-72
2021/01/18 07:55:03;;;;;;;40.33;15.13;;;-7.20;99.90;;;;;;5247185;28;20238;-76
2021/01/18 07:57:38;;;;;;;36.83;14.77;;;-7.10;99.90;;;;;;5247424;28;20205;-75
2021/01/18 08:00:18;;;;;;;36.23;15.43;;;-7.00;99.90;;;;;;5252423;28;20236;-77
2021/01/18 08:02:52;;;;;;;35.47;14.33;;;-6.90;99.90;;;;;;5264521;28;20188;-72
2021/01/18 08:05:33;;;;;;;34.27;14.17;;;-6.80;99.90;;;;;;5269625;28;20637;-75
2021/01/18 08:08:19;;;;;;;32.00;13.53;;;-6.80;99.90;;;;;;5268702;28;20551;-74
2021/01/18 08:10:59;;;;;;;36.00;13.33;;;-6.70;99.90;;;;;;5270914;28;20668;-74
2021/01/18 08:13:40;;;;;;;35.07;14.10;;;-6.60;99.90;;;;;;5270491;28;20529;-72
2021/01/18 08:16:21;;;;;;;30.47;12.83;;;-6.50;99.90;;;;;;5271233;28;20214;-74
2021/01/18 08:18:58;;;;;;;29.30;13.40;;;-6.40;99.90;;;;;;5269963;28;20201;-75
2021/01/18 08:21:36;;;;;;;41.10;14.37;;;-6.30;99.90;;;;;;5252932;28;20630;-75
2021/01/18 08:24:09;;;;;;;30.53;14.17;;;-6.20;99.90;;;;;;5273254;28;20286;-75
2021/01/18 08:27:00;;;;;;;37.03;14.50;;;-6.10;99.90;;;;;;5271516;28;20617;-76
2021/01/18 08:29:48;;;;;;;33.10;14.73;;;-6.00;99.90;;;;;;5271760;28;20207;-74
2021/01/18 08:32:30;;;;;;;33.90;13.30;;;-5.90;99.90;;;;;;5273148;28;20234;-74
2021/01/18 08:35:20;;;;;;;39.57;15.10;;;-5.70;99.90;;;;;;5274813;28;20195;-75
2021/01/18 08:37:53;;;;;;;33.50;13.37;;;-5.70;99.90;;;;;;5270406;28;20227;-75
2021/01/18 08:44:12;;;;;;;30.83;12.83;;;-5.40;99.90;;;;;;5266952;28;20636;-74
2021/01/18 08:46:43;;;;;;;36.57;14.40;;;-5.20;99.90;;;;;;5266832;28;20199;-75
2021/01/18 08:49:28;;;;;;;37.13;13.47;;;-5.10;99.90;;;;;;5269927;28;20193;-75
2021/01/18 08:52:01;;;;;;;39.17;13.47;;;-5.00;99.90;;;;;;5270171;28;20202;-73
2021/01/18 08:54:38;;;;;;;36.20;14.27;;;-4.90;99.90;;;;;;5268420;28;20192;-73
2021/01/18 09:00:58;;;;;;;32.13;13.23;;;-4.70;99.90;;;;;;5268284;28;20262;-75
2021/01/18 09:03:31;;;;;;;28.57;13.07;;;-4.60;99.90;;;;;;5269567;28;20272;-76
2021/01/18 09:06:03;;;;;;;31.20;13.23;;;-4.50;99.90;;;;;;5269006;28;20196;-75
2021/01/18 09:08:35;;;;;;;35.17;14.77;;;-4.50;99.90;;;;;;5270279;28;20192;-76
2021/01/18 09:15:09;;;;;;;34.53;13.60;;;-4.30;99.90;;;;;;5269731;28;20168;-76
2021/01/18 09:17:41;;;;;;;34.27;14.33;;;-4.20;99.90;;;;;;5251242;28;20191;-76
2021/01/18 09:20:13;;;;;;;29.13;12.93;;;-4.10;99.90;;;;;;5269658;28;20272;-75
2021/01/18 09:22:46;;;;;;;26.07;11.90;;;-4.10;99.90;;;;;;5261276;28;20219;-79
2021/01/18 09:25:17;;;;;;;29.60;13.77;;;-4.00;99.90;;;;;;5269973;28;20192;-77
2021/01/18 09:27:49;;;;;;;29.60;12.93;;;-4.00;99.90;;;;;;5266040;28;20192;-78
2021/01/18 09:30:24;;;;;;;29.87;13.20;;;-4.00;99.90;;;;;;5268834;28;20195;-77
2021/01/18 09:32:58;;;;;;;28.40;13.30;;;-3.90;99.90;;;;;;5268439;28;20195;-74
2021/01/18 09:35:36;;;;;;;31.87;14.17;;;-3.80;99.90;;;;;;5268818;28;20571;-74
2021/01/18 09:38:08;;;;;;;36.17;15.90;;;-3.80;99.90;;;;;;5269646;28;20196;-77
2021/01/18 09:40:43;;;;;;;30.53;14.10;;;-3.80;99.90;;;;;;5268960;28;20220;-77
2021/01/18 09:43:19;;;;;;;34.10;14.60;;;-3.80;99.90;;;;;;5268549;28;20192;-75
2021/01/18 09:45:57;;;;;;;31.13;13.93;;;-3.80;99.90;;;;;;5268502;28;20192;-74
2021/01/18 09:48:29;;;;;;;32.77;14.77;;;-3.80;99.90;;;;;;5247636;28;20196;-78
2021/01/18 09:51:03;;;;;;;38.00;16.90;;;-3.80;99.90;;;;;;5268132;28;20223;-77
2021/01/18 09:53:35;;;;;;;48.67;19.73;;;-3.80;99.90;;;;;;5268332;28;20206;-78
2021/01/18 09:56:14;;;;;;;51.03;20.83;;;-3.70;99.90;;;;;;5268489;28;20192;-75
2021/01/18 09:58:54;;;;;;;48.90;22.17;;;-3.70;99.90;;;;;;5270072;28;20256;-76
2021/01/18 10:01:33;;;;;;;57.27;22.73;;;-3.70;99.90;;;;;;5268681;28;20285;-76
2021/01/18 10:04:06;;;;;;;59.63;24.53;;;-3.70;99.90;;;;;;5268541;28;20188;-75
2021/01/18 10:06:38;;;;;;;60.73;24.37;;;-3.60;99.90;;;;;;5250631;28;20316;-77
2021/01/18 10:09:15;;;;;;;56.33;24.07;;;-3.50;99.90;;;;;;5269201;28;20593;-77
2021/01/18 10:11:50;;;;;;;62.83;25.53;;;-3.50;99.90;;;;;;5271710;28;20552;-76
2021/01/18 10:14:27;;;;;;;61.30;25.10;;;-3.50;99.90;;;;;;5273276;28;20551;-78
2021/01/18 10:17:06;;;;;;;56.97;24.43;;;-3.50;99.90;;;;;;5272715;28;20192;-77
2021/01/18 10:19:41;;;;;;;58.17;25.47;;;-3.50;99.90;;;;;;5272832;28;20215;-77
2021/01/18 10:22:17;;;;;;;66.80;27.30;;;-3.50;99.90;;;;;;5273402;28;20216;-77
2021/01/18 10:24:56;;;;;;;68.80;27.93;;;-3.50;99.90;;;;;;5272938;28;20204;-77
2021/01/18 10:27:28;;;;;;;71.60;28.20;;;-3.40;99.90;;;;;;5255169;28;20199;-78
2021/01/18 10:30:14;;;;;;;61.20;26.47;;;-3.40;99.90;;;;;;5273420;28;20192;-75
2021/01/18 10:32:51;;;;;;;66.40;26.67;;;-3.40;99.90;;;;;;5240669;28;20193;-79
2021/01/18 10:35:35;;;;;;;64.33;27.97;;;-3.40;99.90;;;;;;5273899;28;20192;-77
2021/01/18 10:38:20;;;;;;;60.37;26.07;;;-3.40;99.90;;;;;;5267472;28;20251;-79
2021/01/18 10:44:54;;;;;;;68.87;26.77;;;-3.40;99.90;;;;;;5274547;28;20225;-76
2021/01/18 10:47:28;;;;;;;63.43;26.17;;;-3.50;99.90;;;;;;5272722;28;20196;-78
2021/01/18 10:50:01;;;;;;;63.17;27.47;;;-3.50;99.90;;;;;;5273142;28;20573;-74
2021/01/18 10:52:34;;;;;;;57.53;24.87;;;-3.50;99.90;;;;;;5273679;28;20198;-76
2021/01/18 10:55:13;;;;;;;63.77;26.73;;;-3.50;99.90;;;;;;5273642;28;20188;-75
2021/01/18 11:02:08;;;;;;;60.20;25.50;;;-3.40;99.90;;;;;;5272846;28;20318;-73
2021/01/18 11:04:45;;;;;;;64.27;26.33;;;-3.40;99.90;;;;;;5273171;28;20230;-74
2021/01/18 11:07:17;;;;;;;63.30;26.60;;;-3.40;99.90;;;;;;5256127;28;20230;-72
2021/01/18 11:09:58;;;;;;;59.33;23.13;;;-3.30;99.90;;;;;;5274161;28;20189;-73
2021/01/18 11:16:20;;;;;;;49.63;20.43;;;-3.60;99.90;;;;;;5273114;28;20176;-72
2021/01/18 11:18:59;;;;;;;48.77;21.63;;;-3.70;99.90;;;;;;5274570;28;20245;-74
2021/01/18 11:21:30;;;;;;;47.93;21.30;;;-3.70;99.90;;;;;;5273311;28;20665;-72
2021/01/18 11:24:03;;;;;;;50.57;21.83;;;-3.70;99.90;;;;;;5273533;28;20283;-73
2021/01/18 11:26:35;;;;;;;49.30;21.80;;;-3.60;99.90;;;;;;5273226;28;20204;-74
2021/01/18 11:29:07;;;;;;;51.77;21.83;;;-3.60;99.90;;;;;;5273341;28;20299;-74
2021/01/18 11:31:39;;;;;;;53.07;23.13;;;-3.50;99.90;;;;;;5255093;28;20211;-77
2021/01/18 11:34:18;;;;;;;50.97;23.37;;;-3.50;99.90;;;;;;5272667;28;20192;-71
2021/01/18 11:36:49;;;;;;;52.83;21.83;;;-3.50;99.90;;;;;;5272342;28;20272;-74
2021/01/18 11:39:27;;;;;;;56.70;24.03;;;-3.40;99.90;;;;;;5271139;28;20199;-73
2021/01/18 11:41:59;;;;;;;56.77;23.57;;;-3.40;99.90;;;;;;5271949;28;20226;-73
2021/01/18 11:44:31;;;;;;;53.73;22.93;;;-3.40;99.90;;;;;;5271367;28;20287;-74
2021/01/18 11:47:03;;;;;;;63.00;26.73;;;-3.40;99.90;;;;;;5269538;28;20199;-73
2021/01/18 11:49:37;;;;;;;62.63;26.73;;;-3.40;99.90;;;;;;5271208;28;20192;-76
2021/01/18 11:52:08;;;;;;;54.20;24.87;;;-3.40;99.90;;;;;;5270521;28;20189;-74
2021/01/18 11:54:40;;;;;;;55.47;23.60;;;-3.40;99.90;;;;;;5271700;28;20657;-76
2021/01/18 11:57:11;;;;;;;62.77;24.67;;;-3.50;99.90;;;;;;5272525;28;20193;-75
2021/01/18 11:59:43;;;;;;;59.20;24.67;;;-3.60;99.90;;;;;;5272747;28;20598;-74
2021/01/18 12:02:19;;;;;;;58.60;24.97;;;-3.60;99.90;;;;;;5273929;28;20224;-75
2021/01/18 12:04:51;;;;;;;59.17;24.00;;;-3.60;99.90;;;;;;5276729;28;20192;-73
2021/01/18 12:07:22;;;;;;;52.53;23.73;;;-3.60;99.90;;;;;;5273848;28;20210;-74
2021/01/18 12:09:54;;;;;;;58.83;24.83;;;-3.60;99.90;;;;;;5273013;28;20549;-76
2021/01/18 12:12:26;;;;;;;63.10;25.90;;;-3.40;99.90;;;;;;5272002;28;20181;-78
2021/01/18 12:14:57;;;;;;;52.67;23.50;;;-3.30;99.90;;;;;;5272592;28;20196;-73
2021/01/18 12:17:29;;;;;;;62.80;24.83;;;-3.20;99.90;;;;;;5272232;28;20196;-73
2021/01/18 12:20:01;;;;;;;50.87;23.10;;;-3.20;99.90;;;;;;5271545;28;20250;-75
2021/01/18 12:22:33;;;;;;;60.83;24.73;;;-3.20;99.90;;;;;;5272728;28;20236;-71
2021/01/18 12:25:06;;;;;;;51.03;23.10;;;-3.20;99.90;;;;;;5272660;28;20195;-80
2021/01/18 12:27:37;;;;;;;54.83;23.87;;;-3.20;99.90;;;;;;5254421;28;20283;-75
2021/01/18 12:30:12;;;;;;;51.80;21.77;;;-3.20;99.90;;;;;;5272902;28;20214;-73
2021/01/18 12:32:43;;;;;;;46.33;21.20;;;-3.20;99.90;;;;;;5272339;28;20615;-76
2021/01/18 12:35:16;;;;;;;46.13;19.83;;;-3.30;99.90;;;;;;5270829;28;20193;-81
2021/01/18 12:37:49;;;;;;;50.13;21.10;;;-3.30;99.90;;;;;;5271702;28;20192;-82
2021/01/18 12:40:22;;;;;;;49.90;20.43;;;-3.40;99.90;;;;;;5269378;28;20268;-83
2021/01/18 12:42:53;;;;;;;48.17;20.87;;;-3.50;99.90;;;;;;5271287;28;20625;-84
2021/01/18 12:45:29;;;;;;;47.10;20.90;;;-3.50;99.90;;;;;;5263802;28;20203;-78
2021/01/18 12:48:00;;;;;;;47.97;22.13;;;-3.50;99.90;;;;;;5269293;28;20192;-82
2021/01/18 12:50:32;;;;;;;50.80;21.27;;;-3.50;99.90;;;;;;5269821;28;20192;-78
2021/01/18 12:53:04;;;;;;;42.83;19.80;;;-3.50;99.90;;;;;;5270819;28;20530;-72
2021/01/18 12:55:36;;;;;;;52.90;21.33;;;-3.50;99.90;;;;;;5270302;28;20207;-70
2021/01/18 12:58:07;;;;;;;55.30;22.53;;;-3.50;99.90;;;;;;5271116;28;20209;-72
2021/01/18 13:00:39;;;;;;;50.57;20.50;;;-3.50;99.90;;;;;;5268541;28;20247;-74
2021/01/18 13:03:10;;;;;;;49.67;21.83;;;-3.50;99.90;;;;;;5269021;28;20196;-75
2021/01/18 13:05:42;;;;;;;54.27;21.93;;;-3.50;99.90;;;;;;5269354;28;20192;-75
2021/01/18 13:08:15;;;;;;;52.17;21.57;;;-3.50;99.90;;;;;;5252103;28;20281;-72
2021/01/18 13:10:47;;;;;;;55.63;22.23;;;-3.50;99.90;;;;;;5269435;28;20203;-75
2021/01/18 13:13:18;;;;;;;49.83;22.17;;;-3.60;99.90;;;;;;5270671;28;20215;-72
2021/01/18 13:15:51;;;;;;;42.37;20.33;;;-3.60;99.90;;;;;;5269577;28;20193;-75
2021/01/18 13:18:23;;;;;;;43.13;20.60;;;-3.60;99.90;;;;;;5252307;28;20200;-76
2021/01/18 13:20:54;;;;;;;50.27;22.73;;;-3.70;99.90;;;;;;5268978;28;20192;-78
2021/01/18 13:23:26;;;;;;;54.10;21.53;;;-3.70;99.90;;;;;;5270204;28;20195;-72
2021/01/18 13:25:57;;;;;;;50.97;20.37;;;-3.80;99.90;;;;;;5270878;28;20199;-76
2021/01/18 13:28:29;;;;;;;43.23;18.83;;;-3.80;99.90;;;;;;5269886;28;20220;-78
2021/01/18 13:31:01;;;;;;;42.87;19.73;;;-3.80;99.90;;;;;;5270093;28;20204;-78
2021/01/18 13:33:33;;;;;;;46.83;19.83;;;-3.80;99.90;;;;;;5265509;28;20590;-76
2021/01/18 13:36:06;;;;;;;50.33;20.77;;;-3.80;99.90;;;;;;5248549;28;20199;-80
2021/01/18 13:38:38;;;;;;;47.70;20.73;;;-3.80;99.90;;;;;;5266759;28;20188;-84
2021/01/18 13:41:15;;;;;;;46.50;20.23;;;-3.90;99.90;;;;;;5267769;28;20223;-78
2021/01/18 13:43:48;;;;;;;47.10;19.10;;;-4.00;99.90;;;;;;5268761;28;20192;-80
2021/01/18 13:46:22;;;;;;;44.57;19.20;;;-4.10;99.90;;;;;;5271796;28;20275;-80
2021/01/18 13:48:55;;;;;;;41.53;18.53;;;-4.20;99.90;;;;;;5274630;28;20656;-74
2021/01/18 13:51:27;;;;;;;42.63;18.20;;;-4.30;99.90;;;;;;5281207;28;20191;-78
2021/01/18 13:53:59;;;;;;;50.07;21.40;;;-4.40;99.90;;;;;;5276839;28;20215;-74
2021/01/18 13:56:31;;;;;;;50.80;20.23;;;-4.50;99.90;;;;;;5271682;28;20234;-75
2021/01/18 13:59:02;;;;;;;49.23;20.40;;;-4.50;99.90;;;;;;5254191;28;20192;-79
2021/01/18 14:01:34;;;;;;;52.40;21.80;;;-4.70;99.90;;;;;;5270036;28;20243;-77
2021/01/18 14:04:06;;;;;;;50.83;21.80;;;-4.70;99.90;;;;;;5272720;28;20196;-77
2021/01/18 14:06:39;;;;;;;51.57;21.40;;;-4.80;99.90;;;;;;5272960;28;20208;-79
2021/01/18 14:09:14;;;;;;;60.63;22.93;;;-4.90;99.90;;;;;;5274401;28;20196;-74
2021/01/18 14:11:50;;;;;;;54.13;21.73;;;-5.00;99.90;;;;;;5255837;28;20249;-74
2021/01/18 14:14:23;;;;;;;65.93;24.00;;;-5.10;99.90;;;;;;5275595;28;20195;-74